Time;durP1;ratioP1;P1;durP2;ratioP2;P2;SDS_P1;SDS_P2;PMS_P1;PMS_P2;Temp;Humidity;BMP_temperature;BMP_pressure;BME280_temperature;BME280_humidity;BME280_pressure;Samples;Min_cycle;Max_cycle;Signal;HPM_P1;HPM_P2
2023/01/18 03:35:51;;;;;;;12.57;6.83;;;;;;;;;;6159643;23;20245;-90
2023/01/18 03:38:59;;;;;;;14.77;7.00;;;;;;;;;;6159209;23;20200;-92
2023/01/18 03:42:08;;;;;;;13.00;7.07;;;;;;;;;;6159850;23;20171;-93
2023/01/18 03:45:17;;;;;;;16.43;7.03;;;;;;;;;;6160445;23;20493;-92
2023/01/18 03:48:23;;;;;;;17.83;7.07;;;;;;;;;;6160705;23;20193;-93
2023/01/18 03:51:34;;;;;;;14.00;7.03;;;;;;;;;;6158540;23;20164;-93
2023/01/18 03:54:44;;;;;;;16.20;7.30;;;;;;;;;;6158679;23;20173;-92
2023/01/18 03:57:52;;;;;;;16.83;8.20;;;;;;;;;;6158229;23;20201;-93
2023/01/18 04:00:58;;;;;;;21.43;8.37;;;;;;;;;;6157097;23;20221;-94
2023/01/18 04:04:05;;;;;;;17.50;7.83;;;;;;;;;;6157696;23;20216;-92
2023/01/18 04:07:10;;;;;;;21.80;7.90;;;;;;;;;;6155965;23;20193;-91
2023/01/18 04:14:35;;;;;;;19.30;8.53;;;;;;;;;;6176180;23;20184;-90
2023/01/18 04:17:40;;;;;;;16.33;8.30;;;;;;;;;;6157024;23;20189;-91
2023/01/18 04:20:47;;;;;;;16.60;8.10;;;;;;;;;;6159055;23;20148;-90
2023/01/18 04:23:53;;;;;;;18.70;8.73;;;;;;;;;;6158501;23;20165;-91
2023/01/18 04:26:58;;;;;;;21.73;9.30;;;;;;;;;;6158559;23;20160;-92
2023/01/18 04:30:05;;;;;;;19.30;8.60;;;;;;;;;;6158326;23;20189;-91
2023/01/18 04:33:10;;;;;;;20.93;9.00;;;;;;;;;;6157998;23;20196;-92
2023/01/18 04:36:17;;;;;;;26.00;9.57;;;;;;;;;;6158346;23;20153;-92
2023/01/18 04:39:24;;;;;;;19.10;9.00;;;;;;;;;;6158357;23;20196;-92
2023/01/18 04:42:29;;;;;;;23.97;9.50;;;;;;;;;;6158448;23;20197;-93
2023/01/18 04:45:35;;;;;;;18.60;8.83;;;;;;;;;;6158658;23;20209;-91
2023/01/18 04:48:40;;;;;;;23.10;10.03;;;;;;;;;;6156982;23;20172;-92
2023/01/18 04:51:48;;;;;;;19.07;9.00;;;;;;;;;;6158609;23;20160;-93
2023/01/18 04:54:54;;;;;;;21.00;9.53;;;;;;;;;;6157021;23;20242;-91
2023/01/18 04:57:59;;;;;;;22.23;9.33;;;;;;;;;;6157297;23;20200;-92
2023/01/18 05:05:20;;;;;;;34.17;11.23;;;;;;;;;;6174380;23;20157;-92
2023/01/18 05:08:28;;;;;;;28.23;12.30;;;;;;;;;;6157618;23;20644;-90
2023/01/18 05:11:34;;;;;;;30.20;10.43;;;;;;;;;;6157132;23;20168;-92
2023/01/18 05:14:48;;;;;;;37.97;10.40;;;;;;;;;;6157940;23;20168;-91
2023/01/18 05:17:53;;;;;;;21.67;10.10;;;;;;;;;;6156543;23;20204;-93
2023/01/18 05:21:07;;;;;;;31.40;10.07;;;;;;;;;;6157096;23;20212;-91
2023/01/18 05:24:14;;;;;;;21.40;10.27;;;;;;;;;;6157817;23;20168;-92
2023/01/18 05:27:20;;;;;;;32.43;10.70;;;;;;;;;;6158336;23;20152;-91
2023/01/18 05:30:25;;;;;;;21.77;10.33;;;;;;;;;;6156159;23;20169;-91
2023/01/18 05:33:30;;;;;;;26.03;11.47;;;;;;;;;;6157092;23;20571;-92
2023/01/18 05:36:36;;;;;;;26.50;11.23;;;;;;;;;;6158231;23;20241;-94
2023/01/18 05:39:43;;;;;;;23.00;11.20;;;;;;;;;;6157021;23;20173;-94
2023/01/18 05:42:48;;;;;;;27.70;12.03;;;;;;;;;;6156750;23;20173;-92
2023/01/18 05:45:54;;;;;;;29.17;11.60;;;;;;;;;;6154718;23;20185;-93
2023/01/18 05:48:59;;;;;;;32.73;10.43;;;;;;;;;;6156900;23;20192;-92
2023/01/18 05:52:07;;;;;;;38.70;11.83;;;;;;;;;;6156854;23;20164;-93
2023/01/18 05:55:14;;;;;;;34.17;10.80;;;;;;;;;;6158124;23;20228;-91
2023/01/18 05:58:19;;;;;;;31.50;11.17;;;;;;;;;;6154000;23;20192;-92
2023/01/18 06:05:43;;;;;;;25.30;13.00;;;;;;;;;;6172723;23;20210;-92
2023/01/18 06:08:50;;;;;;;25.20;11.80;;;;;;;;;;6151511;23;20259;-91
2023/01/18 06:11:57;;;;;;;26.73;12.07;;;;;;;;;;6152510;23;20169;-88
2023/01/18 06:15:02;;;;;;;27.63;11.90;;;;;;;;;;6155665;23;20155;-92
2023/01/18 06:18:08;;;;;;;23.30;11.20;;;;;;;;;;6156627;23;20212;-91
2023/01/18 06:21:14;;;;;;;30.20;12.63;;;;;;;;;;6154854;23;20220;-92
2023/01/18 06:24:19;;;;;;;34.53;14.53;;;;;;;;;;6152928;23;20259;-91
2023/01/18 06:27:26;;;;;;;33.00;15.23;;;;;;;;;;6153707;23;20172;-89
2023/01/18 06:30:32;;;;;;;33.73;15.17;;;;;;;;;;6155920;23;20177;-91
2023/01/18 06:36:57;;;;;;;29.67;13.50;;;;;;;;;;6157621;23;20169;-90
2023/01/18 06:40:03;;;;;;;31.20;13.53;;;;;;;;;;6154171;23;20173;-89
2023/01/18 06:43:12;;;;;;;40.67;13.77;;;;;;;;;;6155138;23;20160;-91
2023/01/18 06:46:18;;;;;;;39.17;13.97;;;;;;;;;;6155336;23;20680;-89
2023/01/18 20:44:05;;;;;;;14.80;7.30;;;;;;;;;;6131948;23;20201;-90
2023/01/18 20:47:11;;;;;;;15.67;6.70;;;;;;;;;;6158037;23;20173;-90
2023/01/18 20:50:17;;;;;;;11.97;6.33;;;;;;;;;;6155245;23;20201;-91
2023/01/18 20:53:26;;;;;;;15.10;7.20;;;;;;;;;;6156362;23;20204;-91
2023/01/18 20:56:35;;;;;;;14.83;6.70;;;;;;;;;;6155780;23;20173;-90
2023/01/18 21:00:07;;;;;;;12.83;6.87;;;;;;;;;;6157425;23;20232;-90
2023/01/18 21:03:16;;;;;;;13.93;6.97;;;;;;;;;;6157641;23;20165;-91
2023/01/18 21:06:23;;;;;;;13.53;7.00;;;;;;;;;;6157586;23;20201;-89
2023/01/18 21:09:29;;;;;;;17.83;8.00;;;;;;;;;;6156918;23;20201;-89
2023/01/18 21:12:35;;;;;;;15.17;7.47;;;;;;;;;;6153972;23;20176;-89
2023/01/18 21:15:44;;;;;;;18.57;8.63;;;;;;;;;;6157722;23;20210;-90
2023/01/18 21:18:57;;;;;;;18.93;9.23;;;;;;;;;;6155527;23;20212;-91
2023/01/18 21:22:03;;;;;;;16.63;8.00;;;;;;;;;;6156202;23;20172;-91
2023/01/18 21:25:10;;;;;;;14.83;7.80;;;;;;;;;;6154917;23;20169;-91
2023/01/18 21:28:16;;;;;;;14.80;7.77;;;;;;;;;;6155972;23;20220;-89
2023/01/18 21:31:23;;;;;;;13.20;7.03;;;;;;;;;;6157370;23;20212;-90
2023/01/18 21:34:31;;;;;;;15.50;8.03;;;;;;;;;;6155672;23;20169;-91
2023/01/18 21:45:53;;;;;;;16.13;8.60;;;;;;;;;;6155617;23;20169;-90
2023/01/18 21:47:47;;;;;;;21.37;9.93;;;;;;;;;;6154764;23;20647;-88
2023/01/18 21:54:17;;;;;;;16.57;8.70;;;;;;;;;;6160716;23;20292;-92
2023/01/18 21:57:23;;;;;;;20.43;10.60;;;;;;;;;;6155439;23;20168;-87
2023/01/18 22:00:28;;;;;;;15.63;8.70;;;;;;;;;;6154573;23;20192;-89
2023/01/18 22:03:33;;;;;;;15.07;9.07;;;;;;;;;;6154469;23;20153;-90
2023/01/18 22:06:42;;;;;;;14.83;8.33;;;;;;;;;;6157176;23;20168;-89
2023/01/18 22:09:50;;;;;;;14.80;7.73;;;;;;;;;;6163332;23;20168;-89
2023/01/18 22:12:56;;;;;;;14.47;8.57;;;;;;;;;;6161813;23;20683;-90
2023/01/18 22:16:06;;;;;;;14.87;8.53;;;;;;;;;;6158956;23;20172;-91
2023/01/18 22:19:19;;;;;;;17.27;8.83;;;;;;;;;;6161260;23;20219;-89
